Time;durP1;ratioP1;P1;durP2;ratioP2;P2;SDS_P1;SDS_P2;PMS_P1;PMS_P2;Temp;Humidity;BMP_temperature;BMP_pressure;BME280_temperature;BME280_humidity;BME280_pressure;Samples;Min_cycle;Max_cycle;Signal;HPM_P1;HPM_P2
2022/07/29 00:00:26;;;;;;;2.63;0.75;;;;;;;20.05;31.43;100539.28;10429743;28;20239;-77
2022/07/29 00:05:29;;;;;;;3.30;0.93;;;;;;;19.85;31.72;100544.44;10431019;28;20251;-78
2022/07/29 00:10:31;;;;;;;4.47;1.08;;;;;;;19.95;31.76;100528.59;10441957;28;20231;-79
2022/07/29 00:15:34;;;;;;;6.60;0.95;;;;;;;19.37;33.01;100534.94;10441374;28;20250;-77
2022/07/29 00:20:36;;;;;;;3.13;0.70;;;;;;;19.74;31.99;100518.59;10467791;28;20601;-78
2022/07/29 00:25:38;;;;;;;4.20;1.00;;;;;;;19.65;32.22;100503.78;10487691;28;20235;-79
2022/07/29 00:30:42;;;;;;;5.03;0.75;;;;;;;19.58;32.70;100498.00;10465024;28;20264;-77
2022/07/29 00:35:45;;;;;;;3.28;0.68;;;;;;;19.37;32.55;100500.63;10473362;28;20255;-78
2022/07/29 00:40:47;;;;;;;4.38;0.98;;;;;;;19.31;32.85;100500.16;10477354;28;20518;-77
2022/07/29 00:45:49;;;;;;;3.35;0.90;;;;;;;19.33;32.86;100488.34;10482366;28;20275;-77
2022/07/29 00:50:51;;;;;;;2.80;0.85;;;;;;;19.35;32.83;100485.91;10485039;28;20230;-77
2022/07/29 00:55:55;;;;;;;5.53;1.10;;;;;;;19.24;33.29;100480.09;10469407;28;20574;-77
2022/07/29 01:00:57;;;;;;;3.60;0.95;;;;;;;19.39;32.97;100478.22;10470132;28;20223;-78
2022/07/29 01:06:00;;;;;;;5.97;0.95;;;;;;;19.00;33.47;100478.56;10491156;28;20226;-77
2022/07/29 01:11:02;;;;;;;4.15;0.90;;;;;;;18.88;34.22;100473.09;10487368;28;20182;-77
2022/07/29 01:16:17;;;;;;;4.05;1.00;;;;;;;18.89;34.27;100460.44;10500403;28;20214;-77
2022/07/29 01:21:51;;;;;;;5.53;1.13;;;;;;;18.91;34.70;100460.88;10485843;28;20190;-77
2022/07/29 01:27:08;;;;;;;3.83;1.13;;;;;;;18.95;33.84;100458.13;10490248;28;20307;-79
2022/07/29 01:32:18;;;;;;;4.03;0.73;;;;;;;18.76;34.21;100461.91;10500851;28;20198;-78
2022/07/29 01:37:38;;;;;;;4.13;0.95;;;;;;;19.00;34.22;100450.00;10502029;28;20195;-78
2022/07/29 01:42:45;;;;;;;3.60;0.82;;;;;;;18.80;34.70;100439.13;10483128;28;20588;-78
2022/07/29 01:48:02;;;;;;;5.25;0.90;;;;;;;18.69;34.90;100441.84;10483004;28;20194;-78
2022/07/29 01:53:07;;;;;;;3.85;1.20;;;;;;;18.83;34.73;100439.19;10484584;28;20295;-78
2022/07/29 01:58:10;;;;;;;3.40;0.90;;;;;;;18.99;34.48;100436.97;10466865;28;20187;-78
2022/07/29 02:03:13;;;;;;;4.13;0.93;;;;;;;18.94;34.82;100423.00;10467395;28;20183;-78
2022/07/29 02:08:17;;;;;;;2.60;0.82;;;;;;;18.80;34.85;100417.09;10471371;28;20715;-79
2022/07/29 02:13:21;;;;;;;7.05;1.13;;;;;;;18.62;35.28;100413.19;10508266;28;20253;-78
2022/07/29 02:18:25;;;;;;;2.88;0.82;;;;;;;18.63;35.28;100417.69;10506209;28;20460;-80
2022/07/29 02:23:27;;;;;;;3.97;0.80;;;;;;;18.67;34.92;100424.28;10539056;28;20187;-80
2022/07/29 02:28:31;;;;;;;4.97;0.90;;;;;;;18.38;35.83;100413.69;10505656;28;20195;-77
2022/07/29 02:33:33;;;;;;;3.95;1.08;;;;;;;18.68;35.08;100414.50;10481214;28;20229;-78
2022/07/29 02:38:51;;;;;;;3.20;0.70;;;;;;;18.50;36.04;100413.47;10513006;28;20198;-78
2022/07/29 02:43:57;;;;;;;1.80;0.63;;;;;;;18.50;35.55;100402.88;10490372;28;20256;-80
2022/07/29 02:49:06;;;;;;;7.25;1.35;;;;;;;18.41;35.96;100398.66;10491714;28;20191;-77
2022/07/29 02:54:10;;;;;;;5.63;1.00;;;;;;;18.59;35.37;100394.84;10498078;28;20210;-79
2022/07/29 02:59:14;;;;;;;6.70;0.82;;;;;;;18.88;35.14;100401.69;10473583;28;20218;-78
2022/07/29 03:04:18;;;;;;;5.50;1.00;;;;;;;18.66;35.61;100408.38;10460785;28;20309;-77
2022/07/29 03:09:22;;;;;;;4.45;0.88;;;;;;;18.25;36.22;100416.78;10479950;28;20248;-79
2022/07/29 03:14:25;;;;;;;5.20;1.05;;;;;;;17.89;36.98;100406.88;10496409;28;20316;-77
2022/07/29 03:19:28;;;;;;;4.65;0.90;;;;;;;18.03;37.42;100409.13;10511137;28;20227;-77
2022/07/29 03:24:35;;;;;;;4.90;1.15;;;;;;;18.24;36.93;100411.44;10486228;28;20275;-77
2022/07/29 03:29:38;;;;;;;6.90;1.23;;;;;;;18.54;35.80;100406.59;10482649;28;20178;-77
2022/07/29 03:34:40;;;;;;;5.03;0.80;;;;;;;18.37;36.75;100403.50;10502665;28;20256;-77
2022/07/29 03:39:44;;;;;;;4.15;1.20;;;;;;;18.35;37.28;100391.69;10521811;28;20194;-78
2022/07/29 03:44:47;;;;;;;5.03;1.05;;;;;;;18.11;37.28;100393.75;10485403;28;20485;-77
2022/07/29 03:49:52;;;;;;;7.22;1.17;;;;;;;18.32;36.49;100391.25;10478816;28;20199;-77
2022/07/29 03:54:54;;;;;;;9.10;1.33;;;;;;;18.19;37.00;100389.81;10482186;28;20247;-78
2022/07/29 03:59:57;;;;;;;4.68;0.80;;;;;;;18.17;36.66;100382.84;10459900;28;20223;-78
2022/07/29 04:04:59;;;;;;;4.05;0.95;;;;;;;18.56;36.18;100381.34;10481948;28;20315;-78
2022/07/29 04:10:02;;;;;;;4.13;0.85;;;;;;;18.26;36.36;100400.47;10502993;28;20202;-77
2022/07/29 04:15:05;;;;;;;4.78;1.00;;;;;;;17.38;37.86;100419.84;10500674;28;20206;-79
2022/07/29 04:20:07;;;;;;;9.93;1.42;;;;;;;17.95;37.34;100444.47;10486255;28;20199;-78
2022/07/29 04:25:10;;;;;;;8.50;1.50;;;;;;;16.89;38.38;100441.28;10463671;28;20247;-79
2022/07/29 04:30:12;;;;;;;6.47;1.90;;;;;;;17.95;37.39;100435.91;10476575;28;20199;-79
2022/07/29 04:35:14;;;;;;;17.02;4.00;;;;;;;17.74;37.76;100461.19;10514542;28;20242;-77
2022/07/29 04:40:17;;;;;;;8.60;1.60;;;;;;;18.08;36.71;100454.44;10511215;28;20454;-77
2022/07/29 04:45:19;;;;;;;4.75;1.50;;;;;;;16.35;40.97;100475.50;10478507;28;20240;-77
2022/07/29 04:50:23;;;;;;;6.40;1.10;;;;;;;16.50;40.74;100476.63;10476027;28;20464;-77
2022/07/29 04:55:26;;;;;;;4.82;1.40;;;;;;;16.65;40.43;100483.47;10494066;28;20527;-77
2022/07/29 05:00:28;;;;;;;5.03;0.97;;;;;;;16.30;41.44;100487.16;10465843;28;20199;-80
2022/07/29 05:05:34;;;;;;;5.95;0.93;;;;;;;16.66;41.22;100494.47;10488720;28;20264;-78
2022/07/29 05:10:37;;;;;;;5.35;0.93;;;;;;;15.87;42.99;100505.19;10465821;28;20256;-80
2022/07/29 05:15:40;;;;;;;4.03;0.90;;;;;;;15.37;44.66;100515.19;10468426;28;20679;-77
2022/07/29 05:20:42;;;;;;;5.35;1.20;;;;;;;15.72;47.12;100497.50;10464706;28;20473;-78
2022/07/29 05:25:46;;;;;;;10.60;2.50;;;;;;;17.17;44.55;100482.94;10495597;28;20188;-77
2022/07/29 05:30:49;;;;;;;12.40;3.40;;;;;;;16.47;47.59;100488.75;10486638;28;20198;-78
2022/07/29 05:35:52;;;;;;;13.80;3.50;;;;;;;16.90;48.20;100474.25;10511643;28;20299;-77
2022/07/29 05:40:59;;;;;;;6.37;1.70;;;;;;;16.46;49.06;100481.41;10508231;28;20595;-77
2022/07/29 05:46:02;;;;;;;5.88;1.65;;;;;;;16.75;48.37;100499.94;10495149;28;20227;-76
2022/07/29 05:51:04;;;;;;;3.60;1.48;;;;;;;16.87;47.63;100502.66;10465626;28;20537;-78
2022/07/29 05:56:07;;;;;;;7.20;1.73;;;;;;;16.79;47.46;100496.00;10493141;28;20254;-76
2022/07/29 06:01:09;;;;;;;4.13;1.17;;;;;;;17.02;46.16;100504.63;10476811;28;20264;-76
2022/07/29 06:06:11;;;;;;;8.15;1.50;;;;;;;16.55;49.40;100508.44;10503485;28;20556;-78
2022/07/29 06:11:14;;;;;;;6.85;2.03;;;;;;;17.12;47.77;100506.03;10481016;28;20273;-77
2022/07/29 06:16:16;;;;;;;3.53;1.45;;;;;;;17.26;47.96;100514.84;10501917;28;20267;-77
2022/07/29 06:21:31;;;;;;;6.63;2.20;;;;;;;17.50;47.41;100517.34;10495053;28;20237;-76
2022/07/29 06:26:33;;;;;;;3.25;1.63;;;;;;;17.96;46.85;100512.53;10495177;28;20599;-78
2022/07/29 06:31:41;;;;;;;8.82;1.80;;;;;;;18.13;45.39;100511.16;10458874;28;20227;-76
2022/07/29 06:36:43;;;;;;;5.37;2.00;;;;;;;18.44;44.44;100512.06;10477406;28;20251;-79
2022/07/29 06:41:50;;;;;;;5.10;1.85;;;;;;;18.53;44.03;100506.88;10489892;28;20225;-77
2022/07/29 06:46:54;;;;;;;8.77;2.03;;;;;;;18.90;42.97;100496.38;10492554;28;20584;-77
2022/07/29 06:51:56;;;;;;;10.63;1.85;;;;;;;18.73;42.95;100502.69;10494126;28;20191;-77
2022/07/29 06:56:59;;;;;;;5.10;0.90;;;;;;;19.01;40.63;100497.34;10478126;28;20285;-77
2022/07/29 07:02:01;;;;;;;10.52;1.48;;;;;;;19.10;40.52;100493.38;10485978;28;20231;-77
2022/07/29 07:07:03;;;;;;;4.07;1.20;;;;;;;19.52;39.79;100498.75;10474601;28;20564;-77
2022/07/29 07:12:06;;;;;;;5.03;0.95;;;;;;;19.49;40.40;100506.06;10489279;28;20276;-77
2022/07/29 07:17:08;;;;;;;5.35;1.13;;;;;;;19.88;38.84;100506.47;10469720;28;20640;-77
2022/07/29 07:22:10;;;;;;;6.78;1.40;;;;;;;20.24;38.36;100492.47;10492331;28;20235;-78
2022/07/29 07:27:13;;;;;;;8.65;1.98;;;;;;;19.92;37.73;100497.91;10474791;28;20281;-81
2022/07/29 07:32:16;;;;;;;6.53;1.17;;;;;;;20.02;36.73;100505.78;10453263;28;20668;-82
2022/07/29 07:37:20;;;;;;;3.03;1.40;;;;;;;20.09;37.74;100500.09;10485142;28;20296;-78
2022/07/29 07:42:22;;;;;;;5.22;1.92;;;;;;;20.13;37.05;100500.94;10470364;28;20199;-77
2022/07/29 07:47:24;;;;;;;5.72;2.00;;;;;;;20.28;37.65;100508.47;10482087;28;20192;-78
2022/07/29 07:52:29;;;;;;;8.90;2.35;;;;;;;19.89;35.87;100507.28;10480978;28;20245;-80
2022/07/29 07:57:31;;;;;;;6.13;2.30;;;;;;;20.55;36.94;100516.81;10467313;28;20300;-77
2022/07/29 08:02:33;;;;;;;7.75;2.50;;;;;;;20.35;38.26;100519.94;10470658;28;20203;-80
2022/07/29 08:07:36;;;;;;;5.90;1.95;;;;;;;20.86;35.80;100519.03;10447738;28;20227;-78
2022/07/29 08:12:38;;;;;;;6.80;1.90;;;;;;;21.51;33.92;100506.59;10450155;28;20252;-77
2022/07/29 08:17:41;;;;;;;6.75;2.17;;;;;;;20.61;34.22;100509.47;10474655;28;20573;-77
2022/07/29 08:22:44;;;;;;;6.80;1.95;;;;;;;21.20;32.73;100504.44;10466275;28;20249;-78
2022/07/29 08:27:47;;;;;;;7.13;2.47;;;;;;;20.69;33.43;100493.97;10473521;28;20235;-77
2022/07/29 08:32:52;;;;;;;9.98;2.95;;;;;;;21.01;33.72;100509.28;10470224;28;20226;-78
2022/07/29 08:37:56;;;;;;;11.90;3.65;;;;;;;19.27;37.74;100532.75;10500592;28;20300;-78
2022/07/29 08:43:04;;;;;;;11.02;3.33;;;;;;;21.03;36.44;100508.88;10460244;28;20223;-78
2022/07/29 08:48:08;;;;;;;8.00;3.03;;;;;;;20.94;35.39;100515.00;10457721;28;20223;-80
2022/07/29 08:53:13;;;;;;;10.13;3.03;;;;;;;19.92;38.57;100524.47;10478537;28;20230;-78
2022/07/29 08:58:16;;;;;;;13.70;3.20;;;;;;;20.30;38.03;100511.72;10468406;28;20245;-80
2022/07/29 09:03:27;;;;;;;6.50;2.70;;;;;;;20.74;37.25;100513.63;10449831;28;20238;-78
2022/07/29 09:08:33;;;;;;;7.60;3.17;;;;;;;20.79;37.67;100510.44;10463981;28;20299;-78
2022/07/29 09:13:36;;;;;;;8.27;3.63;;;;;;;19.90;40.81;100517.53;10477293;28;20284;-80
2022/07/29 09:18:41;;;;;;;6.35;3.05;;;;;;;18.82;41.30;100511.78;10482999;28;20254;-78
2022/07/29 09:24:07;;;;;;;7.03;2.75;;;;;;;20.06;40.62;100506.59;10444165;28;20695;-79
2022/07/29 09:29:14;;;;;;;7.03;2.85;;;;;;;19.87;39.87;100513.41;10444016;28;20211;-80
2022/07/29 09:34:24;;;;;;;5.10;2.80;;;;;;;18.91;39.90;100532.28;10465774;28;20363;-78
2022/07/29 09:39:36;;;;;;;5.63;2.60;;;;;;;19.26;39.63;100525.41;10430068;28;20231;-76
2022/07/29 09:44:49;;;;;;;7.37;2.80;;;;;;;19.61;39.79;100525.81;10468831;28;20739;-76
2022/07/29 09:50:00;;;;;;;7.03;3.17;;;;;;;19.50;40.81;100512.63;10471108;28;20203;-76
2022/07/29 09:55:06;;;;;;;6.68;2.85;;;;;;;20.59;39.16;100517.63;10471439;28;20296;-76
2022/07/29 10:00:12;;;;;;;6.88;3.55;;;;;;;19.12;42.83;100523.22;10486329;28;20245;-78
2022/07/29 10:05:24;;;;;;;11.23;2.92;;;;;;;20.12;40.54;100516.47;10484983;28;20260;-76
2022/07/29 10:10:28;;;;;;;6.93;3.40;;;;;;;20.12;41.43;100515.66;10486033;28;20268;-76
2022/07/29 10:15:36;;;;;;;6.45;3.88;;;;;;;20.21;41.92;100513.28;10473041;28;20516;-77
2022/07/29 10:20:39;;;;;;;10.27;3.92;;;;;;;19.13;43.05;100522.00;10468157;28;20671;-76
2022/07/29 10:25:42;;;;;;;7.38;4.20;;;;;;;19.84;41.94;100511.34;10474914;28;20187;-79
2022/07/29 10:30:50;;;;;;;7.25;3.50;;;;;;;19.06;43.95;100516.19;10491086;28;20200;-80
2022/07/29 10:36:10;;;;;;;9.23;3.80;;;;;;;19.46;42.46;100517.47;10478775;28;20207;-78
2022/07/29 10:41:39;;;;;;;7.07;3.65;;;;;;;19.99;41.15;100518.00;10487479;28;20199;-77
2022/07/29 10:46:45;;;;;;;9.90;3.92;;;;;;;20.20;41.91;100506.75;10490801;28;20192;-76
2022/07/29 10:51:57;;;;;;;5.50;3.00;;;;;;;20.13;42.33;100511.56;10473979;28;20204;-80
2022/07/29 10:57:26;;;;;;;6.70;2.50;;;;;;;20.20;42.34;100508.78;10489662;28;20266;-77
2022/07/29 11:02:51;;;;;;;9.65;2.80;;;;;;;19.32;44.12;100506.69;10460025;28;20218;-76
2022/07/29 11:08:12;;;;;;;5.88;2.97;;;;;;;18.88;43.74;100524.50;10501341;28;20347;-76
2022/07/29 11:13:51;;;;;;;5.75;2.88;;;;;;;19.26;43.48;100525.41;10492210;28;20582;-78
2022/07/29 11:19:13;;;;;;;6.40;2.80;;;;;;;19.25;42.87;100530.31;10467243;28;20572;-77
2022/07/29 11:24:18;;;;;;;4.65;2.65;;;;;;;19.70;40.76;100528.34;10481889;28;20235;-80
2022/07/29 11:29:31;;;;;;;6.85;2.65;;;;;;;20.10;40.77;100527.50;10496080;28;20482;-77
2022/07/29 11:34:41;;;;;;;4.30;2.53;;;;;;;19.86;40.09;100526.06;10467487;28;20288;-80
2022/07/29 11:39:43;;;;;;;3.40;1.92;;;;;;;18.95;40.74;100526.66;10473325;28;20511;-77
2022/07/29 11:44:54;;;;;;;5.90;2.30;;;;;;;20.33;39.26;100510.94;10484784;28;20183;-80
2022/07/29 11:49:59;;;;;;;5.28;2.10;;;;;;;20.60;38.56;100510.69;10494351;28;20192;-77
2022/07/29 11:55:03;;;;;;;3.60;2.28;;;;;;;20.72;38.05;100507.47;10478882;28;20195;-76
2022/07/29 12:00:12;;;;;;;6.28;2.40;;;;;;;19.64;40.36;100507.91;10475014;28;20191;-79
2022/07/29 12:05:20;;;;;;;8.15;2.42;;;;;;;19.18;41.42;100512.25;10461413;28;20723;-80
2022/07/29 12:10:38;;;;;;;10.13;2.92;;;;;;;20.45;39.48;100504.03;10506706;28;20246;-79
2022/07/29 12:15:44;;;;;;;7.28;2.53;;;;;;;20.03;41.34;100516.00;10484800;28;20203;-79
2022/07/29 12:20:49;;;;;;;5.75;2.10;;;;;;;19.83;41.44;100514.59;10490051;28;20187;-79
2022/07/29 12:25:51;;;;;;;3.78;2.28;;;;;;;19.90;41.67;100520.38;10494814;28;20187;-78
2022/07/29 12:30:55;;;;;;;4.90;2.67;;;;;;;19.16;44.14;100526.09;10450695;28;21462;-79
2022/07/29 12:36:00;;;;;;;8.55;2.97;;;;;;;20.68;41.90;100516.06;10480999;28;20238;-79
2022/07/29 12:41:19;;;;;;;7.72;3.15;;;;;;;21.24;40.81;100511.00;10491267;28;20207;-81
2022/07/29 12:46:21;;;;;;;5.35;2.35;;;;;;;20.16;42.19;100507.94;10448847;28;20196;-77
2022/07/29 12:51:36;;;;;;;7.60;3.03;;;;;;;19.55;43.95;100510.19;10511015;28;20280;-78
2022/07/29 12:56:40;;;;;;;5.38;2.95;;;;;;;20.27;42.22;100506.81;10481674;28;20223;-79
2022/07/29 13:01:48;;;;;;;4.70;3.05;;;;;;;20.12;42.77;100505.03;10460990;28;20191;-80
2022/07/29 13:07:01;;;;;;;6.55;3.15;;;;;;;21.13;41.64;100503.19;10467182;28;20226;-76
2022/07/29 13:12:09;;;;;;;5.22;2.38;;;;;;;21.04;40.17;100505.63;10482169;28;20202;-76
2022/07/29 13:17:27;;;;;;;5.80;2.95;;;;;;;20.75;39.87;100521.00;10472548;28;20254;-77
2022/07/29 13:22:34;;;;;;;3.47;2.15;;;;;;;21.34;39.73;100524.56;10469506;28;20195;-76
2022/07/29 13:27:38;;;;;;;5.85;2.47;;;;;;;21.56;39.84;100514.81;10464749;28;20245;-80
2022/07/29 13:32:41;;;;;;;5.97;3.00;;;;;;;20.95;40.78;100519.47;10446269;28;20235;-76
2022/07/29 13:37:45;;;;;;;5.35;3.08;;;;;;;21.78;39.54;100518.53;10474434;28;20673;-79
2022/07/29 13:42:47;;;;;;;8.95;2.78;;;;;;;22.25;38.03;100517.31;10492173;28;20195;-77
2022/07/29 13:47:49;;;;;;;6.25;2.35;;;;;;;21.01;40.75;100517.88;10467795;28;20510;-79
2022/07/29 13:52:52;;;;;;;5.20;2.63;;;;;;;21.51;38.62;100518.06;10486688;28;20245;-78
2022/07/29 13:57:54;;;;;;;6.05;2.50;;;;;;;21.99;38.71;100517.75;10469337;28;20276;-79
2022/07/29 14:02:57;;;;;;;4.78;2.63;;;;;;;21.33;39.33;100509.41;10499414;28;20480;-77
2022/07/29 14:07:59;;;;;;;3.95;2.70;;;;;;;21.93;37.57;100499.25;10498254;28;20269;-80
2022/07/29 14:13:01;;;;;;;4.60;2.15;;;;;;;22.19;37.06;100504.63;10475680;28;20199;-79
2022/07/29 14:18:04;;;;;;;4.30;2.42;;;;;;;21.89;39.28;100502.13;10508231;28;20242;-80
2022/07/29 14:23:06;;;;;;;4.82;2.78;;;;;;;22.72;36.83;100501.66;10506417;28;20191;-80
2022/07/29 14:28:10;;;;;;;8.00;2.63;;;;;;;23.08;35.84;100496.59;10471129;28;20256;-81
2022/07/29 14:33:16;;;;;;;6.90;2.83;;;;;;;22.51;39.59;100490.22;10479665;28;20195;-77
2022/07/29 14:38:18;;;;;;;3.88;2.03;;;;;;;23.15;35.80;100502.34;10508772;28;20247;-78
2022/07/29 14:43:20;;;;;;;4.40;2.47;;;;;;;23.52;35.16;100498.03;10478371;28;20346;-79
2022/07/29 14:48:23;;;;;;;5.20;2.45;;;;;;;23.04;37.07;100483.44;10476210;28;20188;-80
2022/07/29 14:53:25;;;;;;;5.88;2.47;;;;;;;23.34;36.60;100488.66;10475131;28;20190;-79
2022/07/29 14:58:27;;;;;;;9.07;2.65;;;;;;;23.38;36.85;100487.41;10507507;28;20239;-80
2022/07/29 15:03:30;;;;;;;3.97;1.73;;;;;;;24.13;34.19;100481.91;10510418;28;20492;-80
2022/07/29 15:08:35;;;;;;;4.43;2.80;;;;;;;23.34;35.98;100491.53;10460808;28;20312;-80
2022/07/29 15:13:37;;;;;;;6.55;2.58;;;;;;;23.12;35.54;100493.72;10474646;28;20206;-80
2022/07/29 15:18:39;;;;;;;7.18;2.67;;;;;;;22.32;36.97;100487.78;10478943;28;20273;-79
2022/07/29 15:23:42;;;;;;;9.38;2.60;;;;;;;22.90;35.94;100481.47;10496319;28;20217;-79
2022/07/29 15:28:44;;;;;;;4.55;2.13;;;;;;;23.16;35.85;100491.66;10508756;28;20187;-80
2022/07/29 15:33:47;;;;;;;5.25;2.20;;;;;;;23.21;35.60;100486.28;10463639;28;20595;-78
2022/07/29 15:38:53;;;;;;;6.60;2.35;;;;;;;22.89;35.76;100488.47;10472398;28;20236;-79
2022/07/29 15:43:55;;;;;;;4.13;1.65;;;;;;;23.54;34.96;100481.97;10473107;28;20231;-80
2022/07/29 15:48:57;;;;;;;3.00;2.15;;;;;;;22.85;35.54;100481.91;10482373;28;20218;-80
2022/07/29 15:54:02;;;;;;;4.05;1.75;;;;;;;23.47;34.75;100472.56;10471753;28;20672;-77
2022/07/29 15:59:05;;;;;;;4.20;1.98;;;;;;;22.61;35.93;100477.06;10433270;28;20296;-78
2022/07/29 16:04:07;;;;;;;5.20;1.83;;;;;;;22.72;35.49;100474.97;10472089;28;20607;-79
2022/07/29 16:09:10;;;;;;;6.07;2.70;;;;;;;22.41;36.34;100468.06;10464702;28;20299;-77
2022/07/29 16:14:12;;;;;;;9.05;2.15;;;;;;;22.31;35.90;100472.59;10463266;28;20265;-77
2022/07/29 16:19:15;;;;;;;4.18;2.00;;;;;;;23.09;34.72;100469.50;10438197;28;20247;-80
2022/07/29 16:24:17;;;;;;;6.15;1.98;;;;;;;22.55;35.31;100480.38;10473941;28;20272;-79
2022/07/29 16:29:20;;;;;;;4.07;2.00;;;;;;;22.50;35.39;100483.66;10475398;28;20288;-80
2022/07/29 16:34:22;;;;;;;4.93;1.90;;;;;;;22.71;35.11;100476.22;10458548;28;20568;-76
2022/07/29 16:39:24;;;;;;;4.82;1.90;;;;;;;22.75;34.80;100471.28;10491978;28;20301;-77
2022/07/29 16:44:27;;;;;;;3.60;1.75;;;;;;;22.52;35.25;100474.59;10447704;28;20235;-77
2022/07/29 16:49:30;;;;;;;10.73;2.08;;;;;;;23.13;34.08;100476.06;10460451;28;20226;-76
2022/07/29 16:54:33;;;;;;;4.47;1.85;;;;;;;22.76;34.26;100479.50;10454393;28;20227;-77
2022/07/29 16:59:35;;;;;;;6.50;2.03;;;;;;;24.01;32.89;100473.00;10441736;28;20258;-77
2022/07/29 17:04:44;;;;;;;4.10;1.65;;;;;;;23.36;33.42;100491.94;10489238;28;20297;-76
2022/07/29 17:09:47;;;;;;;7.35;1.88;;;;;;;23.51;33.60;100490.63;10459782;28;21166;-77
2022/07/29 17:14:55;;;;;;;7.00;1.75;;;;;;;23.76;33.49;100485.53;10456538;28;20226;-79
2022/07/29 17:19:57;;;;;;;5.20;1.70;;;;;;;22.37;34.80;100484.50;10450483;28;20889;-77
2022/07/29 17:24:59;;;;;;;2.90;1.33;;;;;;;22.95;33.98;100491.72;10461423;28;21402;-77
2022/07/29 17:30:04;;;;;;;6.72;2.05;;;;;;;23.56;32.67;100493.84;10439682;28;20340;-82
2022/07/29 17:36:22;;;;;;;3.92;1.63;;;;;;;22.85;33.71;100497.09;10463457;28;20235;-81
2022/07/29 17:40:30;;;;;;;6.30;1.67;;;;;;;23.27;33.30;100503.09;10461838;28;20815;-82
2022/07/29 17:45:32;;;;;;;5.32;1.95;;;;;;;23.10;33.66;100499.91;10468132;28;20618;-81
2022/07/29 17:50:51;;;;;;;7.00;1.55;;;;;;;23.36;34.06;100509.22;10430576;28;20388;-79
2022/07/29 17:55:55;;;;;;;7.93;2.10;;;;;;;23.37;34.26;100513.72;10432258;28;21041;-79
2022/07/29 18:00:57;;;;;;;4.15;1.63;;;;;;;22.89;34.99;100522.97;10443751;28;20307;-81
2022/07/29 18:06:00;;;;;;;4.88;2.30;;;;;;;22.96;34.64;100528.66;10484442;28;20764;-81
2022/07/29 18:11:02;;;;;;;6.38;2.08;;;;;;;22.55;35.71;100523.47;10502948;28;20259;-81
2022/07/29 18:16:06;;;;;;;4.38;1.90;;;;;;;22.09;36.51;100528.41;10470262;28;20620;-82
2022/07/29 18:21:09;;;;;;;5.07;1.63;;;;;;;22.89;35.07;100532.41;10444873;28;20307;-79
2022/07/29 18:26:12;;;;;;;5.15;1.65;;;;;;;22.71;34.85;100527.94;10435303;28;20235;-80
2022/07/29 18:31:14;;;;;;;5.53;1.55;;;;;;;23.12;35.02;100534.81;10467440;28;20230;-79
2022/07/29 18:36:16;;;;;;;4.75;1.88;;;;;;;21.78;36.44;100527.94;10460882;28;20693;-79
2022/07/29 18:41:19;;;;;;;5.50;1.70;;;;;;;22.77;34.54;100526.28;10467219;28;20283;-82
2022/07/29 18:46:21;;;;;;;5.07;1.92;;;;;;;22.73;34.47;100531.22;10453391;28;20227;-82
2022/07/29 18:51:24;;;;;;;5.70;1.80;;;;;;;22.90;34.61;100547.56;10489678;28;20219;-83
2022/07/29 18:56:29;;;;;;;3.78;2.00;;;;;;;22.54;35.58;100536.19;10483713;28;20231;-82
2022/07/29 19:01:31;;;;;;;6.57;1.58;;;;;;;22.65;34.48;100533.28;10465515;28;20298;-80
2022/07/29 19:06:34;;;;;;;3.72;1.50;;;;;;;22.79;34.25;100535.28;10456307;28;20345;-79
2022/07/29 19:11:37;;;;;;;3.30;1.38;;;;;;;22.66;35.23;100531.22;10450143;28;20227;-79
2022/07/29 19:16:39;;;;;;;5.10;1.88;;;;;;;22.69;35.20;100536.16;10491576;28;20226;-82
2022/07/29 19:21:42;;;;;;;4.38;1.58;;;;;;;22.35;36.64;100545.22;10469226;28;20265;-80
2022/07/29 19:26:47;;;;;;;5.00;1.70;;;;;;;22.15;37.02;100552.59;10469295;28;20669;-80
2022/07/29 19:31:49;;;;;;;4.70;2.05;;;;;;;22.18;36.74;100558.34;10458437;28;20248;-78
2022/07/29 19:36:52;;;;;;;5.57;1.90;;;;;;;22.18;36.70;100574.75;10463538;28;20224;-80
2022/07/29 19:41:55;;;;;;;6.57;1.90;;;;;;;22.02;37.38;100572.28;10448145;28;20309;-82
2022/07/29 19:47:02;;;;;;;6.47;1.98;;;;;;;21.90;38.23;100586.16;10467700;28;20230;-81
2022/07/29 19:52:06;;;;;;;6.38;1.95;;;;;;;21.90;38.49;100592.72;10469010;28;20525;-80
2022/07/29 19:57:09;;;;;;;6.82;2.22;;;;;;;21.91;38.75;100593.56;10489476;28;20234;-83
2022/07/29 20:02:11;;;;;;;5.55;1.90;;;;;;;21.81;39.12;100600.91;10490750;28;20225;-80
2022/07/29 20:07:14;;;;;;;6.47;2.13;;;;;;;21.93;38.31;100591.91;10470846;28;20272;-80
2022/07/29 20:12:16;;;;;;;4.75;2.30;;;;;;;21.77;38.80;100586.56;10491925;28;20289;-79
2022/07/29 20:17:21;;;;;;;3.10;1.85;;;;;;;21.62;39.41;100587.75;10492221;28;20276;-80
2022/07/29 20:22:23;;;;;;;6.80;1.90;;;;;;;21.62;39.09;100599.22;10469125;28;20280;-79
2022/07/29 20:27:25;;;;;;;4.03;2.35;;;;;;;21.13;39.78;100602.69;10489867;28;20219;-79
2022/07/29 20:32:27;;;;;;;6.25;2.38;;;;;;;21.47;39.13;100600.44;10460093;28;20714;-80
2022/07/29 20:37:31;;;;;;;6.45;2.65;;;;;;;21.14;40.77;100608.03;10455826;28;20243;-79
2022/07/29 20:42:35;;;;;;;8.50;2.53;;;;;;;21.17;40.73;100609.28;10464235;28;20227;-79
2022/07/29 20:47:37;;;;;;;7.22;2.65;;;;;;;20.91;40.98;100609.53;10457014;28;20281;-79
2022/07/29 20:52:42;;;;;;;3.13;2.10;;;;;;;19.95;42.74;100611.56;10468759;28;20245;-79
2022/07/29 20:57:44;;;;;;;6.43;2.47;;;;;;;19.34;45.11;100615.75;10480660;28;20246;-79
2022/07/29 21:02:46;;;;;;;7.38;2.53;;;;;;;19.34;45.39;100612.88;10460861;28;20244;-79
2022/07/29 21:07:49;;;;;;;9.50;3.00;;;;;;;19.36;44.87;100619.88;10474411;28;20254;-79
2022/07/29 21:12:56;;;;;;;6.72;2.72;;;;;;;20.65;42.40;100604.84;10462680;28;20268;-80
2022/07/29 21:18:04;;;;;;;5.32;3.00;;;;;;;20.52;43.17;100620.69;10476368;28;20242;-79
2022/07/29 21:23:07;;;;;;;4.07;3.05;;;;;;;20.44;43.31;100634.94;10468393;28;20284;-79
2022/07/29 21:33:31;;;;;;;5.80;3.33;;;;;;;20.48;42.91;100628.41;10484334;28;20289;-79
2022/07/29 21:38:36;;;;;;;8.20;3.63;;;;;;;20.26;44.13;100633.97;10475090;28;20308;-81
2022/07/29 21:43:38;;;;;;;11.57;7.13;;;;;;;19.88;45.31;100646.66;10457768;28;20487;-79
2022/07/29 21:48:43;;;;;;;8.68;4.05;;;;;;;20.14;44.46;100656.31;10483646;28;20232;-79
2022/07/29 21:53:45;;;;;;;6.00;3.30;;;;;;;20.20;43.97;100654.75;10468856;28;20595;-81
2022/07/29 21:58:48;;;;;;;7.97;4.30;;;;;;;19.93;45.38;100656.88;10466550;28;20234;-79
2022/07/29 22:03:50;;;;;;;5.13;3.72;;;;;;;20.18;44.23;100655.13;10459470;28;20669;-79
2022/07/29 22:08:52;;;;;;;7.20;3.45;;;;;;;20.05;44.37;100650.88;10451250;28;20654;-79
2022/07/29 22:13:55;;;;;;;7.63;3.78;;;;;;;19.92;43.64;100650.34;10478337;28;20235;-79
2022/07/29 22:18:57;;;;;;;6.40;3.40;;;;;;;20.21;42.34;100642.09;10448951;28;20265;-80
2022/07/29 22:24:00;;;;;;;19.38;4.07;;;;;;;20.30;42.49;100636.88;10450204;28;20227;-79
2022/07/29 22:29:02;;;;;;;7.72;3.50;;;;;;;20.15;42.91;100647.34;10456395;28;20262;-79
2022/07/29 22:34:10;;;;;;;5.22;3.28;;;;;;;20.28;41.85;100634.41;10472501;28;20203;-81
2022/07/29 22:39:13;;;;;;;6.63;3.63;;;;;;;20.41;41.17;100638.63;10463359;28;20292;-80
2022/07/29 22:44:18;;;;;;;7.57;3.58;;;;;;;20.32;41.82;100635.25;10495683;28;20250;-82
2022/07/29 22:49:21;;;;;;;4.97;3.20;;;;;;;20.41;41.83;100623.47;10455001;28;20347;-81
2022/07/29 22:54:23;;;;;;;8.68;3.65;;;;;;;20.38;42.14;100616.50;10450990;28;20226;-82
2022/07/29 22:59:26;;;;;;;3.28;2.75;;;;;;;20.21;43.12;100625.72;10473006;28;20617;-86
2022/07/29 23:04:28;;;;;;;8.60;3.28;;;;;;;20.47;41.47;100618.19;10470362;28;20251;-83
2022/07/29 23:09:31;;;;;;;7.07;3.50;;;;;;;20.44;41.47;100605.47;10457273;28;20285;-84
2022/07/29 23:14:36;;;;;;;5.90;3.33;;;;;;;20.24;42.05;100616.38;10454776;28;20681;-83
2022/07/29 23:19:38;;;;;;;6.72;3.63;;;;;;;20.17;42.57;100615.47;10474700;28;20274;-83
2022/07/29 23:24:41;;;;;;;7.50;3.78;;;;;;;20.08;42.25;100624.34;10476358;28;20230;-84